sensor_id;sensor_type;location;lat;lon;timestamp;P1;durP1;ratioP1;P2;durP2;ratioP2
22929;SDS011;11630;42.660;23.292;2023-06-24T00:00:30;19.43;;;13.90;;
22929;SDS011;11630;42.660;23.292;2023-06-24T00:03:01;22.50;;;14.10;;
22929;SDS011;11630;42.660;23.292;2023-06-24T00:05:32;18.47;;;14.00;;
22929;SDS011;11630;42.660;23.292;2023-06-24T00:08:02;15.97;;;14.23;;
22929;SDS011;11630;42.660;23.292;2023-06-24T00:10:33;23.00;;;15.50;;
22929;SDS011;11630;42.660;23.292;2023-06-24T00:13:04;21.40;;;14.90;;
22929;SDS011;11630;42.660;23.292;2023-06-24T00:15:35;18.40;;;15.10;;
22929;SDS011;11630;42.660;23.292;2023-06-24T00:18:06;16.07;;;14.03;;
22929;SDS011;11630;42.660;23.292;2023-06-24T00:20:36;18.93;;;14.20;;
22929;SDS011;11630;42.660;23.292;2023-06-24T00:23:09;19.43;;;13.87;;
22929;SDS011;11630;42.660;23.292;2023-06-24T00:25:41;28.17;;;14.60;;
22929;SDS011;11630;42.660;23.292;2023-06-24T00:28:12;15.80;;;14.10;;
22929;SDS011;11630;42.660;23.292;2023-06-24T00:30:43;19.20;;;14.33;;
22929;SDS011;11630;42.660;23.292;2023-06-24T00:33:14;18.67;;;14.50;;
22929;SDS011;11630;42.660;23.292;2023-06-24T00:35:44;18.33;;;14.17;;
22929;SDS011;11630;42.660;23.292;2023-06-24T00:38:15;21.00;;;13.80;;
22929;SDS011;11630;42.660;23.292;2023-06-24T00:40:45;23.33;;;13.70;;
22929;SDS011;11630;42.660;23.292;2023-06-24T00:43:16;24.27;;;16.43;;
22929;SDS011;11630;42.660;23.292;2023-06-24T00:45:46;20.03;;;14.73;;
22929;SDS011;11630;42.660;23.292;2023-06-24T00:48:17;18.57;;;14.70;;
22929;SDS011;11630;42.660;23.292;2023-06-24T00:50:49;18.10;;;14.37;;
22929;SDS011;11630;42.660;23.292;2023-06-24T00:53:18;20.27;;;13.90;;
22929;SDS011;11630;42.660;23.292;2023-06-24T00:55:49;26.00;;;14.03;;
22929;SDS011;11630;42.660;23.292;2023-06-24T00:58:21;15.70;;;14.00;;
22929;SDS011;11630;42.660;23.292;2023-06-24T01:00:52;17.93;;;14.13;;
22929;SDS011;11630;42.660;23.292;2023-06-24T01:03:26;17.77;;;14.43;;
22929;SDS011;11630;42.660;23.292;2023-06-24T01:05:56;18.07;;;13.63;;
22929;SDS011;11630;42.660;23.292;2023-06-24T01:08:27;19.90;;;14.17;;
22929;SDS011;11630;42.660;23.292;2023-06-24T01:10:58;20.70;;;14.30;;
22929;SDS011;11630;42.660;23.292;2023-06-24T01:13:29;17.83;;;14.97;;
22929;SDS011;11630;42.660;23.292;2023-06-24T01:16:00;20.63;;;14.30;;
22929;SDS011;11630;42.660;23.292;2023-06-24T01:18:35;19.87;;;14.90;;
22929;SDS011;11630;42.660;23.292;2023-06-24T01:21:14;18.07;;;14.00;;
22929;SDS011;11630;42.660;23.292;2023-06-24T01:24:08;16.23;;;14.17;;
22929;SDS011;11630;42.660;23.292;2023-06-24T01:26:47;16.97;;;14.13;;
22929;SDS011;11630;42.660;23.292;2023-06-24T01:32:19;15.93;;;13.00;;
22929;SDS011;11630;42.660;23.292;2023-06-24T01:34:59;35.57;;;16.30;;
22929;SDS011;11630;42.660;23.292;2023-06-24T01:37:28;25.67;;;14.57;;
22929;SDS011;11630;42.660;23.292;2023-06-24T01:40:26;17.67;;;13.53;;
22929;SDS011;11630;42.660;23.292;2023-06-24T01:43:01;21.00;;;13.93;;
22929;SDS011;11630;42.660;23.292;2023-06-24T01:45:32;20.73;;;14.40;;
22929;SDS011;11630;42.660;23.292;2023-06-24T01:48:13;22.17;;;15.23;;
22929;SDS011;11630;42.660;23.292;2023-06-24T01:50:57;18.13;;;15.23;;
22929;SDS011;11630;42.660;23.292;2023-06-24T01:53:23;28.37;;;15.57;;
22929;SDS011;11630;42.660;23.292;2023-06-24T01:55:57;18.37;;;14.73;;
22929;SDS011;11630;42.660;23.292;2023-06-24T01:58:30;20.50;;;15.83;;
22929;SDS011;11630;42.660;23.292;2023-06-24T02:01:04;19.00;;;15.57;;
22929;SDS011;11630;42.660;23.292;2023-06-24T02:03:36;17.37;;;14.63;;
22929;SDS011;11630;42.660;23.292;2023-06-24T02:06:08;20.07;;;15.57;;
22929;SDS011;11630;42.660;23.292;2023-06-24T02:08:39;21.30;;;14.80;;
22929;SDS011;11630;42.660;23.292;2023-06-24T02:11:11;21.87;;;14.43;;
22929;SDS011;11630;42.660;23.292;2023-06-24T02:13:43;24.13;;;15.67;;
22929;SDS011;11630;42.660;23.292;2023-06-24T02:16:14;21.87;;;14.93;;
22929;SDS011;11630;42.660;23.292;2023-06-24T02:18:46;18.90;;;15.03;;
22929;SDS011;11630;42.660;23.292;2023-06-24T02:21:17;17.23;;;15.07;;
22929;SDS011;11630;42.660;23.292;2023-06-24T02:23:48;17.63;;;14.73;;
22929;SDS011;11630;42.660;23.292;2023-06-24T02:26:20;18.27;;;14.27;;
22929;SDS011;11630;42.660;23.292;2023-06-24T02:28:52;18.77;;;15.77;;
22929;SDS011;11630;42.660;23.292;2023-06-24T02:31:22;20.50;;;14.83;;
22929;SDS011;11630;42.660;23.292;2023-06-24T02:33:52;17.63;;;15.77;;
22929;SDS011;11630;42.660;23.292;2023-06-24T02:36:22;20.60;;;14.87;;
22929;SDS011;11630;42.660;23.292;2023-06-24T02:38:53;21.97;;;14.70;;
22929;SDS011;11630;42.660;23.292;2023-06-24T02:41:25;20.30;;;15.87;;
22929;SDS011;11630;42.660;23.292;2023-06-24T02:43:54;19.53;;;15.47;;
22929;SDS011;11630;42.660;23.292;2023-06-24T02:46:25;16.03;;;13.97;;
22929;SDS011;11630;42.660;23.292;2023-06-24T02:48:58;20.13;;;13.50;;
22929;SDS011;11630;42.660;23.292;2023-06-24T02:51:30;19.13;;;14.47;;
22929;SDS011;11630;42.660;23.292;2023-06-24T02:54:01;15.10;;;13.50;;
22929;SDS011;11630;42.660;23.292;2023-06-24T02:56:32;16.83;;;13.70;;
22929;SDS011;11630;42.660;23.292;2023-06-24T02:59:03;15.30;;;13.80;;
22929;SDS011;11630;42.660;23.292;2023-06-24T03:01:38;16.10;;;14.40;;
22929;SDS011;11630;42.660;23.292;2023-06-24T03:04:14;17.17;;;15.03;;
22929;SDS011;11630;42.660;23.292;2023-06-24T03:06:46;19.50;;;14.10;;
22929;SDS011;11630;42.660;23.292;2023-06-24T03:09:17;17.23;;;13.10;;
22929;SDS011;11630;42.660;23.292;2023-06-24T03:11:49;14.80;;;12.93;;
22929;SDS011;11630;42.660;23.292;2023-06-24T03:14:19;22.00;;;16.33;;
22929;SDS011;11630;42.660;23.292;2023-06-24T03:16:53;18.33;;;14.30;;
22929;SDS011;11630;42.660;23.292;2023-06-24T03:19:22;15.80;;;13.37;;
22929;SDS011;11630;42.660;23.292;2023-06-24T03:21:53;21.80;;;12.93;;
22929;SDS011;11630;42.660;23.292;2023-06-24T03:24:24;19.40;;;14.10;;
22929;SDS011;11630;42.660;23.292;2023-06-24T03:26:55;18.90;;;14.07;;
22929;SDS011;11630;42.660;23.292;2023-06-24T03:29:25;18.50;;;14.63;;
22929;SDS011;11630;42.660;23.292;2023-06-24T03:31:56;19.90;;;13.73;;
22929;SDS011;11630;42.660;23.292;2023-06-24T03:34:27;19.23;;;14.53;;
22929;SDS011;11630;42.660;23.292;2023-06-24T03:36:57;15.97;;;14.27;;
22929;SDS011;11630;42.660;23.292;2023-06-24T03:39:27;16.87;;;14.00;;
22929;SDS011;11630;42.660;23.292;2023-06-24T03:41:58;18.97;;;15.67;;
22929;SDS011;11630;42.660;23.292;2023-06-24T03:44:29;18.90;;;15.50;;
22929;SDS011;11630;42.660;23.292;2023-06-24T03:47:00;20.00;;;16.27;;
22929;SDS011;11630;42.660;23.292;2023-06-24T03:49:31;18.37;;;15.70;;
22929;SDS011;11630;42.660;23.292;2023-06-24T03:52:02;23.27;;;16.20;;
22929;SDS011;11630;42.660;23.292;2023-06-24T03:54:40;18.57;;;14.63;;
22929;SDS011;11630;42.660;23.292;2023-06-24T03:57:10;19.20;;;16.50;;
22929;SDS011;11630;42.660;23.292;2023-06-24T03:59:42;19.30;;;16.53;;
22929;SDS011;11630;42.660;23.292;2023-06-24T04:02:12;19.63;;;14.90;;
22929;SDS011;11630;42.660;23.292;2023-06-24T04:04:43;17.97;;;14.97;;
22929;SDS011;11630;42.660;23.292;2023-06-24T04:07:14;18.27;;;14.20;;
22929;SDS011;11630;42.660;23.292;2023-06-24T04:09:48;18.47;;;15.60;;
22929;SDS011;11630;42.660;23.292;2023-06-24T04:12:19;18.37;;;14.43;;
22929;SDS011;11630;42.660;23.292;2023-06-24T04:14:50;20.60;;;16.13;;
22929;SDS011;11630;42.660;23.292;2023-06-24T04:17:20;19.37;;;15.67;;
22929;SDS011;11630;42.660;23.292;2023-06-24T04:19:55;19.73;;;15.27;;
22929;SDS011;11630;42.660;23.292;2023-06-24T04:22:26;20.67;;;15.20;;
22929;SDS011;11630;42.660;23.292;2023-06-24T04:24:57;22.50;;;16.33;;
22929;SDS011;11630;42.660;23.292;2023-06-24T04:27:27;20.13;;;16.23;;
22929;SDS011;11630;42.660;23.292;2023-06-24T04:29:58;19.93;;;15.93;;
22929;SDS011;11630;42.660;23.292;2023-06-24T04:32:28;18.20;;;15.70;;
22929;SDS011;11630;42.660;23.292;2023-06-24T04:34:59;17.10;;;15.27;;
22929;SDS011;11630;42.660;23.292;2023-06-24T04:37:29;23.67;;;15.77;;
22929;SDS011;11630;42.660;23.292;2023-06-24T04:40:00;19.00;;;16.40;;
22929;SDS011;11630;42.660;23.292;2023-06-24T04:42:30;20.23;;;15.53;;
22929;SDS011;11630;42.660;23.292;2023-06-24T04:45:01;25.47;;;17.13;;
22929;SDS011;11630;42.660;23.292;2023-06-24T04:47:32;18.90;;;16.90;;
22929;SDS011;11630;42.660;23.292;2023-06-24T04:50:03;19.13;;;15.47;;
22929;SDS011;11630;42.660;23.292;2023-06-24T04:52:35;17.90;;;16.00;;
22929;SDS011;11630;42.660;23.292;2023-06-24T04:55:07;27.53;;;16.07;;
22929;SDS011;11630;42.660;23.292;2023-06-24T04:57:37;21.27;;;16.47;;
22929;SDS011;11630;42.660;23.292;2023-06-24T05:00:08;18.43;;;14.90;;
22929;SDS011;11630;42.660;23.292;2023-06-24T05:02:39;18.77;;;15.57;;
22929;SDS011;11630;42.660;23.292;2023-06-24T05:05:10;18.73;;;16.00;;
22929;SDS011;11630;42.660;23.292;2023-06-24T05:07:40;23.33;;;16.83;;
22929;SDS011;11630;42.660;23.292;2023-06-24T05:10:11;19.87;;;16.37;;
22929;SDS011;11630;42.660;23.292;2023-06-24T05:12:43;20.07;;;16.67;;
22929;SDS011;11630;42.660;23.292;2023-06-24T05:15:13;23.13;;;16.10;;
22929;SDS011;11630;42.660;23.292;2023-06-24T05:17:44;18.17;;;16.17;;
22929;SDS011;11630;42.660;23.292;2023-06-24T05:20:15;19.97;;;15.70;;
22929;SDS011;11630;42.660;23.292;2023-06-24T05:22:46;17.93;;;14.27;;
22929;SDS011;11630;42.660;23.292;2023-06-24T05:25:16;20.43;;;16.27;;
22929;SDS011;11630;42.660;23.292;2023-06-24T05:27:46;18.93;;;16.30;;
22929;SDS011;11630;42.660;23.292;2023-06-24T05:30:17;19.30;;;15.93;;
22929;SDS011;11630;42.660;23.292;2023-06-24T05:32:47;20.23;;;15.47;;
22929;SDS011;11630;42.660;23.292;2023-06-24T05:35:18;18.27;;;15.33;;
22929;SDS011;11630;42.660;23.292;2023-06-24T05:37:49;18.30;;;16.27;;
22929;SDS011;11630;42.660;23.292;2023-06-24T05:40:20;31.77;;;17.13;;
22929;SDS011;11630;42.660;23.292;2023-06-24T05:42:51;24.43;;;16.40;;
22929;SDS011;11630;42.660;23.292;2023-06-24T05:45:21;20.40;;;15.70;;
22929;SDS011;11630;42.660;23.292;2023-06-24T05:47:52;21.90;;;16.17;;
22929;SDS011;11630;42.660;23.292;2023-06-24T05:50:23;18.30;;;15.33;;
22929;SDS011;11630;42.660;23.292;2023-06-24T05:52:53;17.63;;;15.67;;
22929;SDS011;11630;42.660;23.292;2023-06-24T05:55:24;17.93;;;16.03;;
22929;SDS011;11630;42.660;23.292;2023-06-24T05:57:54;21.20;;;15.83;;
22929;SDS011;11630;42.660;23.292;2023-06-24T06:00:25;21.47;;;17.07;;
22929;SDS011;11630;42.660;23.292;2023-06-24T06:02:55;20.93;;;15.17;;
22929;SDS011;11630;42.660;23.292;2023-06-24T06:05:26;16.77;;;14.97;;
22929;SDS011;11630;42.660;23.292;2023-06-24T06:07:57;17.23;;;15.00;;
22929;SDS011;11630;42.660;23.292;2023-06-24T06:10:27;19.10;;;14.57;;
22929;SDS011;11630;42.660;23.292;2023-06-24T06:12:57;20.67;;;15.97;;
22929;SDS011;11630;42.660;23.292;2023-06-24T06:15:28;17.57;;;13.53;;
22929;SDS011;11630;42.660;23.292;2023-06-24T06:17:59;12.80;;;11.40;;
22929;SDS011;11630;42.660;23.292;2023-06-24T06:20:29;18.27;;;12.23;;
22929;SDS011;11630;42.660;23.292;2023-06-24T06:23:00;15.47;;;11.73;;
22929;SDS011;11630;42.660;23.292;2023-06-24T06:25:34;15.07;;;12.73;;
22929;SDS011;11630;42.660;23.292;2023-06-24T06:28:05;12.87;;;11.50;;
22929;SDS011;11630;42.660;23.292;2023-06-24T06:30:36;14.40;;;12.90;;
22929;SDS011;11630;42.660;23.292;2023-06-24T06:33:07;15.17;;;12.93;;
22929;SDS011;11630;42.660;23.292;2023-06-24T06:35:38;13.73;;;12.03;;
22929;SDS011;11630;42.660;23.292;2023-06-24T06:38:08;20.63;;;14.13;;
22929;SDS011;11630;42.660;23.292;2023-06-24T06:40:39;14.83;;;13.33;;
22929;SDS011;11630;42.660;23.292;2023-06-24T06:43:09;17.30;;;13.40;;
22929;SDS011;11630;42.660;23.292;2023-06-24T06:45:40;13.80;;;12.03;;
22929;SDS011;11630;42.660;23.292;2023-06-24T06:48:11;14.97;;;13.43;;
22929;SDS011;11630;42.660;23.292;2023-06-24T06:50:42;16.67;;;14.07;;
22929;SDS011;11630;42.660;23.292;2023-06-24T06:53:12;15.93;;;13.00;;
22929;SDS011;11630;42.660;23.292;2023-06-24T06:55:43;21.33;;;14.53;;
22929;SDS011;11630;42.660;23.292;2023-06-24T06:58:14;18.40;;;14.43;;
22929;SDS011;11630;42.660;23.292;2023-06-24T07:00:43;14.77;;;13.23;;
22929;SDS011;11630;42.660;23.292;2023-06-24T07:03:13;20.93;;;14.00;;
22929;SDS011;11630;42.660;23.292;2023-06-24T07:05:45;20.40;;;13.60;;
22929;SDS011;11630;42.660;23.292;2023-06-24T07:08:16;21.03;;;14.80;;
22929;SDS011;11630;42.660;23.292;2023-06-24T07:10:47;18.30;;;14.30;;
22929;SDS011;11630;42.660;23.292;2023-06-24T07:13:17;18.70;;;14.80;;
22929;SDS011;11630;42.660;23.292;2023-06-24T07:15:49;15.03;;;13.30;;
22929;SDS011;11630;42.660;23.292;2023-06-24T07:18:18;18.62;;;13.75;;
22929;SDS011;11630;42.660;23.292;2023-06-24T07:20:50;19.60;;;13.93;;
22929;SDS011;11630;42.660;23.292;2023-06-24T07:23:21;22.75;;;14.73;;
22929;SDS011;11630;42.660;23.292;2023-06-24T07:25:51;19.42;;;14.45;;
22929;SDS011;11630;42.660;23.292;2023-06-24T07:28:21;20.02;;;14.00;;
22929;SDS011;11630;42.660;23.292;2023-06-24T07:30:52;16.05;;;14.07;;
22929;SDS011;11630;42.660;23.292;2023-06-24T07:33:23;15.05;;;13.55;;
22929;SDS011;11630;42.660;23.292;2023-06-24T07:35:54;15.30;;;13.73;;
22929;SDS011;11630;42.660;23.292;2023-06-24T07:38:24;15.40;;;13.43;;
22929;SDS011;11630;42.660;23.292;2023-06-24T07:40:55;15.68;;;13.75;;
22929;SDS011;11630;42.660;23.292;2023-06-24T07:43:26;16.10;;;13.73;;
22929;SDS011;11630;42.660;23.292;2023-06-24T07:45:57;16.12;;;13.68;;
22929;SDS011;11630;42.660;23.292;2023-06-24T07:48:28;15.88;;;14.28;;
22929;SDS011;11630;42.660;23.292;2023-06-24T07:50:59;19.10;;;14.47;;
22929;SDS011;11630;42.660;23.292;2023-06-24T07:53:29;16.35;;;13.35;;
22929;SDS011;11630;42.660;23.292;2023-06-24T07:56:00;27.10;;;14.18;;
22929;SDS011;11630;42.660;23.292;2023-06-24T07:58:29;20.20;;;14.75;;
22929;SDS011;11630;42.660;23.292;2023-06-24T08:01:00;18.73;;;14.33;;
22929;SDS011;11630;42.660;23.292;2023-06-24T08:03:30;18.45;;;14.70;;
22929;SDS011;11630;42.660;23.292;2023-06-24T08:06:02;16.23;;;13.95;;
22929;SDS011;11630;42.660;23.292;2023-06-24T08:08:33;20.62;;;14.47;;
22929;SDS011;11630;42.660;23.292;2023-06-24T08:11:03;16.93;;;13.20;;
22929;SDS011;11630;42.660;23.292;2023-06-24T08:13:34;25.85;;;16.00;;
22929;SDS011;11630;42.660;23.292;2023-06-24T08:16:05;19.40;;;14.38;;
22929;SDS011;11630;42.660;23.292;2023-06-24T08:18:36;23.60;;;14.83;;
22929;SDS011;11630;42.660;23.292;2023-06-24T08:21:07;17.20;;;13.58;;
22929;SDS011;11630;42.660;23.292;2023-06-24T08:23:38;21.90;;;14.35;;
22929;SDS011;11630;42.660;23.292;2023-06-24T08:26:08;14.07;;;12.55;;
22929;SDS011;11630;42.660;23.292;2023-06-24T08:28:38;22.48;;;13.85;;
22929;SDS011;11630;42.660;23.292;2023-06-24T08:31:10;26.77;;;14.38;;
22929;SDS011;11630;42.660;23.292;2023-06-24T08:33:43;20.35;;;14.33;;
22929;SDS011;11630;42.660;23.292;2023-06-24T08:36:13;18.52;;;13.65;;
22929;SDS011;11630;42.660;23.292;2023-06-24T08:38:44;15.85;;;13.55;;
22929;SDS011;11630;42.660;23.292;2023-06-24T08:41:15;20.12;;;14.45;;
22929;SDS011;11630;42.660;23.292;2023-06-24T08:43:46;16.07;;;13.83;;
22929;SDS011;11630;42.660;23.292;2023-06-24T08:46:17;14.38;;;13.00;;
22929;SDS011;11630;42.660;23.292;2023-06-24T08:48:47;20.08;;;13.93;;
22929;SDS011;11630;42.660;23.292;2023-06-24T08:51:20;17.55;;;13.38;;
22929;SDS011;11630;42.660;23.292;2023-06-24T08:53:51;16.23;;;14.53;;
22929;SDS011;11630;42.660;23.292;2023-06-24T08:56:21;18.10;;;14.68;;
22929;SDS011;11630;42.660;23.292;2023-06-24T08:58:52;15.40;;;13.80;;
22929;SDS011;11630;42.660;23.292;2023-06-24T09:01:23;30.80;;;14.95;;
22929;SDS011;11630;42.660;23.292;2023-06-24T09:03:53;15.40;;;13.62;;
22929;SDS011;11630;42.660;23.292;2023-06-24T09:06:24;16.62;;;14.87;;
22929;SDS011;11630;42.660;23.292;2023-06-24T09:08:56;20.57;;;14.00;;
22929;SDS011;11630;42.660;23.292;2023-06-24T09:11:27;21.57;;;13.90;;
22929;SDS011;11630;42.660;23.292;2023-06-24T09:13:59;15.98;;;13.32;;
22929;SDS011;11630;42.660;23.292;2023-06-24T09:16:29;16.65;;;12.35;;
22929;SDS011;11630;42.660;23.292;2023-06-24T09:19:02;18.62;;;12.85;;
22929;SDS011;11630;42.660;23.292;2023-06-24T09:21:32;21.40;;;12.93;;
22929;SDS011;11630;42.660;23.292;2023-06-24T09:24:04;16.52;;;12.78;;
22929;SDS011;11630;42.660;23.292;2023-06-24T09:26:35;24.65;;;14.15;;
22929;SDS011;11630;42.660;23.292;2023-06-24T09:29:05;18.32;;;13.22;;
22929;SDS011;11630;42.660;23.292;2023-06-24T09:31:35;18.12;;;12.65;;
22929;SDS011;11630;42.660;23.292;2023-06-24T09:34:08;21.37;;;13.43;;
22929;SDS011;11630;42.660;23.292;2023-06-24T09:36:41;26.62;;;13.98;;
22929;SDS011;11630;42.660;23.292;2023-06-24T09:39:13;18.55;;;12.40;;
22929;SDS011;11630;42.660;23.292;2023-06-24T09:41:45;16.65;;;13.20;;
22929;SDS011;11630;42.660;23.292;2023-06-24T09:44:19;13.85;;;12.53;;
22929;SDS011;11630;42.660;23.292;2023-06-24T09:46:49;15.38;;;12.37;;
22929;SDS011;11630;42.660;23.292;2023-06-24T09:49:19;14.05;;;11.78;;
22929;SDS011;11630;42.660;23.292;2023-06-24T09:51:55;14.28;;;11.63;;
22929;SDS011;11630;42.660;23.292;2023-06-24T09:54:21;17.15;;;11.45;;
22929;SDS011;11630;42.660;23.292;2023-06-24T09:56:58;15.43;;;11.25;;
22929;SDS011;11630;42.660;23.292;2023-06-24T09:59:28;19.30;;;12.10;;
22929;SDS011;11630;42.660;23.292;2023-06-24T10:02:02;14.35;;;11.20;;
22929;SDS011;11630;42.660;23.292;2023-06-24T10:04:34;11.55;;;10.32;;
22929;SDS011;11630;42.660;23.292;2023-06-24T10:07:05;22.77;;;12.05;;
22929;SDS011;11630;42.660;23.292;2023-06-24T10:09:36;12.10;;;10.80;;
22929;SDS011;11630;42.660;23.292;2023-06-24T10:12:08;12.85;;;11.20;;
22929;SDS011;11630;42.660;23.292;2023-06-24T10:14:39;12.15;;;10.95;;
22929;SDS011;11630;42.660;23.292;2023-06-24T10:17:11;11.43;;;10.35;;
22929;SDS011;11630;42.660;23.292;2023-06-24T10:19:42;12.05;;;10.85;;
22929;SDS011;11630;42.660;23.292;2023-06-24T10:22:16;23.45;;;12.40;;
22929;SDS011;11630;42.660;23.292;2023-06-24T10:24:48;12.73;;;11.08;;
22929;SDS011;11630;42.660;23.292;2023-06-24T10:27:22;65.37;;;17.52;;
22929;SDS011;11630;42.660;23.292;2023-06-24T10:29:53;19.37;;;12.75;;
22929;SDS011;11630;42.660;23.292;2023-06-24T10:32:24;16.37;;;10.30;;
22929;SDS011;11630;42.660;23.292;2023-06-24T10:34:56;15.63;;;10.40;;
22929;SDS011;11630;42.660;23.292;2023-06-24T10:37:30;11.85;;;10.15;;
22929;SDS011;11630;42.660;23.292;2023-06-24T10:40:02;16.48;;;10.88;;
22929;SDS011;11630;42.660;23.292;2023-06-24T10:42:43;22.80;;;10.63;;
22929;SDS011;11630;42.660;23.292;2023-06-24T10:45:17;17.25;;;10.00;;
22929;SDS011;11630;42.660;23.292;2023-06-24T10:47:49;12.75;;;9.70;;
22929;SDS011;11630;42.660;23.292;2023-06-24T10:50:22;15.25;;;10.00;;
22929;SDS011;11630;42.660;23.292;2023-06-24T10:52:53;11.73;;;10.53;;
22929;SDS011;11630;42.660;23.292;2023-06-24T10:55:24;16.02;;;10.05;;
22929;SDS011;11630;42.660;23.292;2023-06-24T10:58:13;17.75;;;9.43;;
22929;SDS011;11630;42.660;23.292;2023-06-24T11:00:40;16.50;;;9.05;;
22929;SDS011;11630;42.660;23.292;2023-06-24T11:03:11;12.55;;;9.20;;
22929;SDS011;11630;42.660;23.292;2023-06-24T11:05:44;10.90;;;8.93;;
22929;SDS011;11630;42.660;23.292;2023-06-24T11:08:16;20.32;;;10.43;;
22929;SDS011;11630;42.660;23.292;2023-06-24T11:10:47;23.10;;;9.53;;
22929;SDS011;11630;42.660;23.292;2023-06-24T11:13:22;10.82;;;9.73;;
22929;SDS011;11630;42.660;23.292;2023-06-24T11:15:51;10.82;;;8.23;;
22929;SDS011;11630;42.660;23.292;2023-06-24T11:18:23;10.88;;;9.10;;
22929;SDS011;11630;42.660;23.292;2023-06-24T11:20:54;10.43;;;8.58;;
22929;SDS011;11630;42.660;23.292;2023-06-24T11:23:25;11.18;;;8.35;;
22929;SDS011;11630;42.660;23.292;2023-06-24T11:25:56;14.98;;;8.78;;
22929;SDS011;11630;42.660;23.292;2023-06-24T11:28:27;11.68;;;7.92;;
22929;SDS011;11630;42.660;23.292;2023-06-24T11:31:05;9.28;;;7.28;;
22929;SDS011;11630;42.660;23.292;2023-06-24T11:33:36;10.43;;;8.38;;
22929;SDS011;11630;42.660;23.292;2023-06-24T11:36:09;11.93;;;8.83;;
22929;SDS011;11630;42.660;23.292;2023-06-24T11:38:40;14.60;;;8.23;;
22929;SDS011;11630;42.660;23.292;2023-06-24T11:41:11;10.08;;;8.05;;
22929;SDS011;11630;42.660;23.292;2023-06-24T11:43:46;9.43;;;8.43;;
22929;SDS011;11630;42.660;23.292;2023-06-24T11:46:26;14.43;;;8.68;;
22929;SDS011;11630;42.660;23.292;2023-06-24T11:49:06;12.98;;;9.08;;
22929;SDS011;11630;42.660;23.292;2023-06-24T11:51:50;12.73;;;8.80;;
22929;SDS011;11630;42.660;23.292;2023-06-24T11:54:21;10.68;;;8.50;;
22929;SDS011;11630;42.660;23.292;2023-06-24T11:56:52;16.30;;;8.85;;
22929;SDS011;11630;42.660;23.292;2023-06-24T11:59:23;8.83;;;7.95;;
22929;SDS011;11630;42.660;23.292;2023-06-24T12:01:55;15.53;;;7.97;;
22929;SDS011;11630;42.660;23.292;2023-06-24T12:04:30;11.48;;;8.55;;
22929;SDS011;11630;42.660;23.292;2023-06-24T12:07:01;10.08;;;8.18;;
22929;SDS011;11630;42.660;23.292;2023-06-24T12:09:32;13.35;;;8.23;;
22929;SDS011;11630;42.660;23.292;2023-06-24T12:12:03;8.38;;;7.60;;
22929;SDS011;11630;42.660;23.292;2023-06-24T12:14:33;8.95;;;8.03;;
22929;SDS011;11630;42.660;23.292;2023-06-24T12:17:05;11.00;;;7.47;;
22929;SDS011;11630;42.660;23.292;2023-06-24T12:19:36;10.10;;;8.58;;
22929;SDS011;11630;42.660;23.292;2023-06-24T12:22:07;10.38;;;7.50;;
22929;SDS011;11630;42.660;23.292;2023-06-24T12:24:38;15.70;;;8.05;;
22929;SDS011;11630;42.660;23.292;2023-06-24T12:27:08;12.15;;;8.10;;
22929;SDS011;11630;42.660;23.292;2023-06-24T12:29:38;9.78;;;7.72;;
22929;SDS011;11630;42.660;23.292;2023-06-24T12:32:09;11.20;;;7.72;;
22929;SDS011;11630;42.660;23.292;2023-06-24T12:34:40;11.75;;;8.48;;
22929;SDS011;11630;42.660;23.292;2023-06-24T12:37:13;10.93;;;7.28;;
22929;SDS011;11630;42.660;23.292;2023-06-24T12:39:44;11.22;;;8.05;;
22929;SDS011;11630;42.660;23.292;2023-06-24T12:42:15;10.00;;;8.00;;
22929;SDS011;11630;42.660;23.292;2023-06-24T12:44:46;18.12;;;8.10;;
22929;SDS011;11630;42.660;23.292;2023-06-24T12:47:17;11.88;;;7.75;;
22929;SDS011;11630;42.660;23.292;2023-06-24T12:49:48;10.70;;;8.18;;
22929;SDS011;11630;42.660;23.292;2023-06-24T12:52:18;9.05;;;8.15;;
22929;SDS011;11630;42.660;23.292;2023-06-24T12:54:49;12.28;;;8.85;;
22929;SDS011;11630;42.660;23.292;2023-06-24T12:57:20;11.35;;;8.50;;
22929;SDS011;11630;42.660;23.292;2023-06-24T12:59:52;18.20;;;9.10;;
22929;SDS011;11630;42.660;23.292;2023-06-24T13:02:23;10.32;;;7.70;;
22929;SDS011;11630;42.660;23.292;2023-06-24T13:04:53;11.65;;;8.30;;
22929;SDS011;11630;42.660;23.292;2023-06-24T13:07:28;12.10;;;7.75;;
22929;SDS011;11630;42.660;23.292;2023-06-24T13:09:59;11.50;;;8.10;;
22929;SDS011;11630;42.660;23.292;2023-06-24T13:12:30;8.98;;;7.72;;
22929;SDS011;11630;42.660;23.292;2023-06-24T13:15:02;14.53;;;8.30;;
22929;SDS011;11630;42.660;23.292;2023-06-24T13:17:32;16.93;;;9.43;;
22929;SDS011;11630;42.660;23.292;2023-06-24T13:20:11;10.28;;;8.43;;
22929;SDS011;11630;42.660;23.292;2023-06-24T13:22:41;14.87;;;10.05;;
22929;SDS011;11630;42.660;23.292;2023-06-24T13:25:13;11.00;;;9.80;;
22929;SDS011;11630;42.660;23.292;2023-06-24T13:27:44;17.12;;;10.82;;
22929;SDS011;11630;42.660;23.292;2023-06-24T13:30:15;15.48;;;9.95;;
22929;SDS011;11630;42.660;23.292;2023-06-24T13:32:46;14.35;;;10.45;;
22929;SDS011;11630;42.660;23.292;2023-06-24T13:35:17;18.23;;;10.13;;
22929;SDS011;11630;42.660;23.292;2023-06-24T13:37:48;14.68;;;9.85;;
22929;SDS011;11630;42.660;23.292;2023-06-24T13:40:19;27.95;;;8.73;;
22929;SDS011;11630;42.660;23.292;2023-06-24T13:42:50;17.37;;;8.73;;
22929;SDS011;11630;42.660;23.292;2023-06-24T13:45:21;17.90;;;7.65;;
22929;SDS011;11630;42.660;23.292;2023-06-24T13:47:53;28.83;;;8.90;;
22929;SDS011;11630;42.660;23.292;2023-06-24T13:50:23;32.67;;;8.47;;
22929;SDS011;11630;42.660;23.292;2023-06-24T13:52:54;21.43;;;7.63;;
22929;SDS011;11630;42.660;23.292;2023-06-24T13:55:24;14.83;;;8.37;;
22929;SDS011;11630;42.660;23.292;2023-06-24T13:57:55;20.23;;;7.90;;
22929;SDS011;11630;42.660;23.292;2023-06-24T14:00:25;12.40;;;7.40;;
22929;SDS011;11630;42.660;23.292;2023-06-24T14:02:55;13.90;;;7.07;;
22929;SDS011;11630;42.660;23.292;2023-06-24T14:05:29;17.77;;;7.90;;
22929;SDS011;11630;42.660;23.292;2023-06-24T14:08:00;15.77;;;7.93;;
22929;SDS011;11630;42.660;23.292;2023-06-24T14:10:31;24.17;;;9.77;;
22929;SDS011;11630;42.660;23.292;2023-06-24T14:13:02;17.40;;;9.93;;
22929;SDS011;11630;42.660;23.292;2023-06-24T14:15:33;21.07;;;10.23;;
22929;SDS011;11630;42.660;23.292;2023-06-24T14:18:05;14.63;;;7.30;;
22929;SDS011;11630;42.660;23.292;2023-06-24T14:20:35;12.53;;;6.33;;
22929;SDS011;11630;42.660;23.292;2023-06-24T14:23:05;15.00;;;7.20;;
22929;SDS011;11630;42.660;23.292;2023-06-24T14:25:35;17.33;;;6.60;;
22929;SDS011;11630;42.660;23.292;2023-06-24T14:28:09;11.50;;;6.27;;
22929;SDS011;11630;42.660;23.292;2023-06-24T14:30:40;21.30;;;5.73;;
22929;SDS011;11630;42.660;23.292;2023-06-24T14:33:10;20.10;;;6.60;;
22929;SDS011;11630;42.660;23.292;2023-06-24T14:35:41;16.40;;;6.67;;
22929;SDS011;11630;42.660;23.292;2023-06-24T14:38:12;9.53;;;6.70;;